sensor_id;sensor_type;location;lat;lon;timestamp;P1;durP1;ratioP1;P2;durP2;ratioP2
31402;SDS011;18039;52.188;21.024;2023-04-25T00:01:20;18.85;;;14.32;;
31402;SDS011;18039;52.188;21.024;2023-04-25T00:03:48;21.25;;;13.40;;
31402;SDS011;18039;52.188;21.024;2023-04-25T00:06:16;22.10;;;14.00;;
31402;SDS011;18039;52.188;21.024;2023-04-25T00:08:44;18.65;;;14.32;;
31402;SDS011;18039;52.188;21.024;2023-04-25T00:11:11;27.23;;;15.27;;
31402;SDS011;18039;52.188;21.024;2023-04-25T00:13:38;20.75;;;14.30;;
31402;SDS011;18039;52.188;21.024;2023-04-25T00:16:08;22.00;;;14.82;;
31402;SDS011;18039;52.188;21.024;2023-04-25T00:18:36;18.95;;;13.32;;
31402;SDS011;18039;52.188;21.024;2023-04-25T00:21:04;21.15;;;14.43;;
31402;SDS011;18039;52.188;21.024;2023-04-25T00:23:33;21.60;;;13.82;;
31402;SDS011;18039;52.188;21.024;2023-04-25T00:26:02;19.17;;;14.52;;
31402;SDS011;18039;52.188;21.024;2023-04-25T00:28:29;19.92;;;15.23;;
31402;SDS011;18039;52.188;21.024;2023-04-25T00:30:57;18.25;;;13.75;;
31402;SDS011;18039;52.188;21.024;2023-04-25T00:33:24;21.40;;;14.57;;
31402;SDS011;18039;52.188;21.024;2023-04-25T00:35:52;19.27;;;14.27;;
31402;SDS011;18039;52.188;21.024;2023-04-25T00:38:19;23.13;;;14.65;;
31402;SDS011;18039;52.188;21.024;2023-04-25T00:40:46;20.65;;;14.48;;
31402;SDS011;18039;52.188;21.024;2023-04-25T00:43:14;22.63;;;14.65;;
31402;SDS011;18039;52.188;21.024;2023-04-25T00:45:41;22.73;;;16.10;;
31402;SDS011;18039;52.188;21.024;2023-04-25T00:48:09;24.23;;;15.95;;
31402;SDS011;18039;52.188;21.024;2023-04-25T00:50:37;22.10;;;15.13;;
31402;SDS011;18039;52.188;21.024;2023-04-25T00:53:04;19.48;;;15.68;;
31402;SDS011;18039;52.188;21.024;2023-04-25T00:55:32;20.50;;;15.20;;
31402;SDS011;18039;52.188;21.024;2023-04-25T00:58:01;21.25;;;15.93;;
31402;SDS011;18039;52.188;21.024;2023-04-25T01:00:28;20.17;;;14.45;;
31402;SDS011;18039;52.188;21.024;2023-04-25T01:02:55;21.80;;;14.63;;
31402;SDS011;18039;52.188;21.024;2023-04-25T01:05:23;21.88;;;14.93;;
31402;SDS011;18039;52.188;21.024;2023-04-25T01:07:50;25.02;;;14.68;;
31402;SDS011;18039;52.188;21.024;2023-04-25T01:10:17;20.92;;;15.02;;
31402;SDS011;18039;52.188;21.024;2023-04-25T01:12:45;21.00;;;15.15;;
31402;SDS011;18039;52.188;21.024;2023-04-25T01:15:13;20.13;;;14.85;;
31402;SDS011;18039;52.188;21.024;2023-04-25T01:17:40;20.38;;;14.80;;
31402;SDS011;18039;52.188;21.024;2023-04-25T01:20:08;21.35;;;15.85;;
31402;SDS011;18039;52.188;21.024;2023-04-25T01:22:36;21.35;;;14.55;;
31402;SDS011;18039;52.188;21.024;2023-04-25T01:25:03;22.80;;;15.48;;
31402;SDS011;18039;52.188;21.024;2023-04-25T01:27:31;23.70;;;15.00;;
31402;SDS011;18039;52.188;21.024;2023-04-25T01:30:00;23.85;;;14.93;;
31402;SDS011;18039;52.188;21.024;2023-04-25T01:32:29;22.60;;;15.80;;
31402;SDS011;18039;52.188;21.024;2023-04-25T01:35:06;20.05;;;14.35;;
31402;SDS011;18039;52.188;21.024;2023-04-25T01:37:38;21.90;;;13.82;;
31402;SDS011;18039;52.188;21.024;2023-04-25T01:40:11;22.70;;;14.13;;
31402;SDS011;18039;52.188;21.024;2023-04-25T01:42:40;21.60;;;14.73;;
31402;SDS011;18039;52.188;21.024;2023-04-25T01:45:10;20.17;;;14.07;;
31402;SDS011;18039;52.188;21.024;2023-04-25T01:47:38;23.60;;;14.40;;
31402;SDS011;18039;52.188;21.024;2023-04-25T01:50:07;18.52;;;13.95;;
31402;SDS011;18039;52.188;21.024;2023-04-25T01:52:36;20.05;;;14.30;;
31402;SDS011;18039;52.188;21.024;2023-04-25T01:55:03;20.48;;;13.85;;
31402;SDS011;18039;52.188;21.024;2023-04-25T01:57:33;20.70;;;13.65;;
31402;SDS011;18039;52.188;21.024;2023-04-25T02:00:02;21.10;;;14.15;;
31402;SDS011;18039;52.188;21.024;2023-04-25T02:02:40;20.25;;;13.68;;
31402;SDS011;18039;52.188;21.024;2023-04-25T02:05:26;20.85;;;12.98;;
31402;SDS011;18039;52.188;21.024;2023-04-25T02:07:53;18.80;;;12.98;;
31402;SDS011;18039;52.188;21.024;2023-04-25T02:10:24;21.47;;;12.93;;
31402;SDS011;18039;52.188;21.024;2023-04-25T02:13:05;20.70;;;13.18;;
31402;SDS011;18039;52.188;21.024;2023-04-25T02:16:02;18.98;;;13.07;;
31402;SDS011;18039;52.188;21.024;2023-04-25T02:18:30;19.83;;;12.75;;
31402;SDS011;18039;52.188;21.024;2023-04-25T02:20:59;17.70;;;12.70;;
31402;SDS011;18039;52.188;21.024;2023-04-25T02:23:28;22.45;;;13.15;;
31402;SDS011;18039;52.188;21.024;2023-04-25T02:25:56;18.10;;;12.50;;
31402;SDS011;18039;52.188;21.024;2023-04-25T02:28:24;18.33;;;12.82;;
31402;SDS011;18039;52.188;21.024;2023-04-25T02:30:52;19.92;;;12.32;;
31402;SDS011;18039;52.188;21.024;2023-04-25T02:33:19;18.58;;;12.32;;
31402;SDS011;18039;52.188;21.024;2023-04-25T02:35:48;15.40;;;11.80;;
31402;SDS011;18039;52.188;21.024;2023-04-25T02:38:15;21.00;;;12.05;;
31402;SDS011;18039;52.188;21.024;2023-04-25T02:40:42;15.50;;;11.02;;
31402;SDS011;18039;52.188;21.024;2023-04-25T02:43:10;17.73;;;11.30;;
31402;SDS011;18039;52.188;21.024;2023-04-25T02:45:37;16.70;;;11.25;;
31402;SDS011;18039;52.188;21.024;2023-04-25T02:48:05;17.98;;;12.00;;
31402;SDS011;18039;52.188;21.024;2023-04-25T02:50:32;17.23;;;11.18;;
31402;SDS011;18039;52.188;21.024;2023-04-25T02:53:00;16.45;;;11.48;;
31402;SDS011;18039;52.188;21.024;2023-04-25T02:55:33;15.85;;;10.63;;
31402;SDS011;18039;52.188;21.024;2023-04-25T02:58:02;18.98;;;10.57;;
31402;SDS011;18039;52.188;21.024;2023-04-25T03:00:39;15.95;;;11.15;;
31402;SDS011;18039;52.188;21.024;2023-04-25T03:03:06;17.83;;;11.20;;
31402;SDS011;18039;52.188;21.024;2023-04-25T03:05:33;21.45;;;12.02;;
31402;SDS011;18039;52.188;21.024;2023-04-25T03:08:01;17.20;;;11.02;;
31402;SDS011;18039;52.188;21.024;2023-04-25T03:10:29;18.42;;;11.38;;
31402;SDS011;18039;52.188;21.024;2023-04-25T03:13:00;16.98;;;11.80;;
31402;SDS011;18039;52.188;21.024;2023-04-25T03:15:28;15.88;;;11.70;;
31402;SDS011;18039;52.188;21.024;2023-04-25T03:17:55;15.38;;;10.57;;
31402;SDS011;18039;52.188;21.024;2023-04-25T03:20:23;18.08;;;10.43;;
31402;SDS011;18039;52.188;21.024;2023-04-25T03:22:50;16.55;;;11.68;;
31402;SDS011;18039;52.188;21.024;2023-04-25T03:25:18;16.55;;;10.75;;
31402;SDS011;18039;52.188;21.024;2023-04-25T03:27:45;17.75;;;11.20;;
31402;SDS011;18039;52.188;21.024;2023-04-25T03:30:12;16.90;;;10.57;;
31402;SDS011;18039;52.188;21.024;2023-04-25T03:32:41;15.45;;;10.55;;
31402;SDS011;18039;52.188;21.024;2023-04-25T03:35:09;17.42;;;10.48;;
31402;SDS011;18039;52.188;21.024;2023-04-25T03:37:36;16.95;;;11.13;;
31402;SDS011;18039;52.188;21.024;2023-04-25T03:40:05;17.13;;;10.68;;
31402;SDS011;18039;52.188;21.024;2023-04-25T03:42:58;14.27;;;10.65;;
31402;SDS011;18039;52.188;21.024;2023-04-25T03:45:27;15.93;;;10.75;;
31402;SDS011;18039;52.188;21.024;2023-04-25T03:47:54;16.10;;;10.57;;
31402;SDS011;18039;52.188;21.024;2023-04-25T03:50:21;18.90;;;10.57;;
31402;SDS011;18039;52.188;21.024;2023-04-25T03:52:49;16.08;;;10.05;;
31402;SDS011;18039;52.188;21.024;2023-04-25T03:55:17;13.20;;;9.15;;
31402;SDS011;18039;52.188;21.024;2023-04-25T03:57:44;13.27;;;9.00;;
31402;SDS011;18039;52.188;21.024;2023-04-25T04:00:12;13.20;;;9.50;;
31402;SDS011;18039;52.188;21.024;2023-04-25T04:02:40;18.27;;;10.07;;
31402;SDS011;18039;52.188;21.024;2023-04-25T04:05:12;14.40;;;9.15;;
31402;SDS011;18039;52.188;21.024;2023-04-25T04:07:46;13.10;;;8.90;;
31402;SDS011;18039;52.188;21.024;2023-04-25T04:10:15;13.85;;;9.25;;
31402;SDS011;18039;52.188;21.024;2023-04-25T04:12:43;13.00;;;9.23;;
31402;SDS011;18039;52.188;21.024;2023-04-25T04:15:11;14.52;;;9.68;;
31402;SDS011;18039;52.188;21.024;2023-04-25T04:17:39;13.32;;;8.85;;
31402;SDS011;18039;52.188;21.024;2023-04-25T04:20:08;11.40;;;8.65;;
31402;SDS011;18039;52.188;21.024;2023-04-25T04:22:37;18.67;;;9.80;;
31402;SDS011;18039;52.188;21.024;2023-04-25T04:25:09;15.20;;;8.65;;
31402;SDS011;18039;52.188;21.024;2023-04-25T04:27:57;15.50;;;8.80;;
31402;SDS011;18039;52.188;21.024;2023-04-25T04:30:53;12.65;;;8.32;;
31402;SDS011;18039;52.188;21.024;2023-04-25T04:33:21;13.45;;;8.38;;
31402;SDS011;18039;52.188;21.024;2023-04-25T04:35:56;13.93;;;9.18;;
31402;SDS011;18039;52.188;21.024;2023-04-25T04:38:23;11.63;;;8.68;;
31402;SDS011;18039;52.188;21.024;2023-04-25T04:40:55;12.88;;;8.75;;
31402;SDS011;18039;52.188;21.024;2023-04-25T04:43:52;12.95;;;8.52;;
31402;SDS011;18039;52.188;21.024;2023-04-25T04:46:32;10.40;;;7.93;;
31402;SDS011;18039;52.188;21.024;2023-04-25T04:49:12;13.85;;;8.73;;
31402;SDS011;18039;52.188;21.024;2023-04-25T04:51:54;14.27;;;9.38;;
31402;SDS011;18039;52.188;21.024;2023-04-25T04:54:57;11.40;;;8.27;;
31402;SDS011;18039;52.188;21.024;2023-04-25T04:57:43;11.38;;;8.23;;
31402;SDS011;18039;52.188;21.024;2023-04-25T05:00:17;11.75;;;8.98;;
31402;SDS011;18039;52.188;21.024;2023-04-25T05:03:03;13.55;;;9.73;;
31402;SDS011;18039;52.188;21.024;2023-04-25T05:05:51;11.25;;;9.13;;
31402;SDS011;18039;52.188;21.024;2023-04-25T05:08:19;10.43;;;8.85;;
31402;SDS011;18039;52.188;21.024;2023-04-25T05:11:04;12.55;;;8.45;;
31402;SDS011;18039;52.188;21.024;2023-04-25T05:13:42;14.75;;;10.35;;
31402;SDS011;18039;52.188;21.024;2023-04-25T05:19:09;15.10;;;10.90;;
31402;SDS011;18039;52.188;21.024;2023-04-25T05:21:50;17.25;;;11.73;;
31402;SDS011;18039;52.188;21.024;2023-04-25T05:24:31;15.23;;;11.43;;
31402;SDS011;18039;52.188;21.024;2023-04-25T05:30:11;16.45;;;11.13;;
31402;SDS011;18039;52.188;21.024;2023-04-25T05:33:04;17.90;;;11.95;;
31402;SDS011;18039;52.188;21.024;2023-04-25T05:35:32;17.23;;;11.52;;
31402;SDS011;18039;52.188;21.024;2023-04-25T05:38:00;18.85;;;12.25;;
31402;SDS011;18039;52.188;21.024;2023-04-25T05:40:50;19.60;;;11.65;;
31402;SDS011;18039;52.188;21.024;2023-04-25T05:43:36;17.30;;;11.93;;
31402;SDS011;18039;52.188;21.024;2023-04-25T05:46:20;19.83;;;12.07;;
31402;SDS011;18039;52.188;21.024;2023-04-25T05:49:13;18.08;;;12.35;;
31402;SDS011;18039;52.188;21.024;2023-04-25T05:52:08;18.77;;;12.43;;
31402;SDS011;18039;52.188;21.024;2023-04-25T05:54:55;15.63;;;10.98;;
31402;SDS011;18039;52.188;21.024;2023-04-25T05:57:23;15.70;;;11.50;;
31402;SDS011;18039;52.188;21.024;2023-04-25T05:59:54;18.13;;;12.45;;
31402;SDS011;18039;52.188;21.024;2023-04-25T06:02:25;17.65;;;12.65;;
31402;SDS011;18039;52.188;21.024;2023-04-25T06:04:53;19.90;;;13.13;;
31402;SDS011;18039;52.188;21.024;2023-04-25T06:07:22;17.48;;;11.40;;
31402;SDS011;18039;52.188;21.024;2023-04-25T06:09:49;20.10;;;12.35;;
31402;SDS011;18039;52.188;21.024;2023-04-25T06:12:17;16.17;;;12.05;;
31402;SDS011;18039;52.188;21.024;2023-04-25T06:14:45;15.68;;;12.35;;
31402;SDS011;18039;52.188;21.024;2023-04-25T06:17:14;14.57;;;11.38;;
31402;SDS011;18039;52.188;21.024;2023-04-25T06:19:41;14.93;;;11.25;;
31402;SDS011;18039;52.188;21.024;2023-04-25T06:22:08;15.10;;;11.00;;
31402;SDS011;18039;52.188;21.024;2023-04-25T06:24:38;17.30;;;11.68;;
31402;SDS011;18039;52.188;21.024;2023-04-25T06:27:05;16.77;;;10.43;;
31402;SDS011;18039;52.188;21.024;2023-04-25T06:29:32;14.93;;;11.15;;
31402;SDS011;18039;52.188;21.024;2023-04-25T06:32:00;15.93;;;11.07;;
31402;SDS011;18039;52.188;21.024;2023-04-25T06:34:28;16.52;;;11.00;;
31402;SDS011;18039;52.188;21.024;2023-04-25T06:36:56;14.77;;;11.52;;
31402;SDS011;18039;52.188;21.024;2023-04-25T06:39:23;16.63;;;10.73;;
31402;SDS011;18039;52.188;21.024;2023-04-25T06:41:52;15.57;;;10.73;;
31402;SDS011;18039;52.188;21.024;2023-04-25T06:44:44;17.27;;;11.40;;
31402;SDS011;18039;52.188;21.024;2023-04-25T06:47:12;17.83;;;11.32;;
31402;SDS011;18039;52.188;21.024;2023-04-25T06:49:42;14.77;;;10.70;;
31402;SDS011;18039;52.188;21.024;2023-04-25T06:52:10;17.35;;;11.43;;
31402;SDS011;18039;52.188;21.024;2023-04-25T06:54:38;19.27;;;10.43;;
31402;SDS011;18039;52.188;21.024;2023-04-25T06:57:18;16.25;;;10.73;;
31402;SDS011;18039;52.188;21.024;2023-04-25T06:59:46;17.40;;;11.45;;
31402;SDS011;18039;52.188;21.024;2023-04-25T07:02:14;16.67;;;11.27;;
31402;SDS011;18039;52.188;21.024;2023-04-25T07:04:42;17.98;;;11.23;;
31402;SDS011;18039;52.188;21.024;2023-04-25T07:07:10;12.93;;;9.68;;
31402;SDS011;18039;52.188;21.024;2023-04-25T07:09:53;13.60;;;10.65;;
31402;SDS011;18039;52.188;21.024;2023-04-25T07:12:20;15.70;;;11.50;;
31402;SDS011;18039;52.188;21.024;2023-04-25T07:14:48;15.65;;;10.93;;
31402;SDS011;18039;52.188;21.024;2023-04-25T07:17:15;15.50;;;10.85;;
31402;SDS011;18039;52.188;21.024;2023-04-25T07:19:45;20.40;;;10.95;;
31402;SDS011;18039;52.188;21.024;2023-04-25T07:22:12;19.33;;;10.35;;
31402;SDS011;18039;52.188;21.024;2023-04-25T07:24:41;18.35;;;10.77;;
31402;SDS011;18039;52.188;21.024;2023-04-25T07:27:12;17.10;;;10.35;;
31402;SDS011;18039;52.188;21.024;2023-04-25T07:29:49;14.73;;;11.18;;
31402;SDS011;18039;52.188;21.024;2023-04-25T07:32:17;15.77;;;10.13;;
31402;SDS011;18039;52.188;21.024;2023-04-25T07:34:44;14.57;;;10.45;;
31402;SDS011;18039;52.188;21.024;2023-04-25T07:37:11;14.80;;;10.48;;
31402;SDS011;18039;52.188;21.024;2023-04-25T07:39:52;15.15;;;10.75;;
31402;SDS011;18039;52.188;21.024;2023-04-25T07:42:20;11.98;;;8.88;;
31402;SDS011;18039;52.188;21.024;2023-04-25T07:44:47;12.23;;;9.10;;
31402;SDS011;18039;52.188;21.024;2023-04-25T07:47:15;12.55;;;9.68;;
31402;SDS011;18039;52.188;21.024;2023-04-25T07:49:42;12.93;;;9.75;;
31402;SDS011;18039;52.188;21.024;2023-04-25T07:52:10;12.90;;;8.98;;
31402;SDS011;18039;52.188;21.024;2023-04-25T07:54:43;12.05;;;9.15;;
31402;SDS011;18039;52.188;21.024;2023-04-25T07:57:16;12.45;;;8.73;;
31402;SDS011;18039;52.188;21.024;2023-04-25T07:59:46;13.33;;;8.57;;
31402;SDS011;18039;52.188;21.024;2023-04-25T08:02:14;10.90;;;8.15;;
31402;SDS011;18039;52.188;21.024;2023-04-25T08:04:42;12.30;;;8.07;;
31402;SDS011;18039;52.188;21.024;2023-04-25T08:07:11;13.75;;;8.63;;
31402;SDS011;18039;52.188;21.024;2023-04-25T08:09:48;12.02;;;7.88;;
31402;SDS011;18039;52.188;21.024;2023-04-25T08:12:23;18.08;;;7.72;;
31402;SDS011;18039;52.188;21.024;2023-04-25T08:14:51;9.38;;;7.30;;
31402;SDS011;18039;52.188;21.024;2023-04-25T08:17:18;9.20;;;7.18;;
31402;SDS011;18039;52.188;21.024;2023-04-25T08:19:45;9.48;;;6.45;;
31402;SDS011;18039;52.188;21.024;2023-04-25T08:22:22;10.68;;;7.07;;
31402;SDS011;18039;52.188;21.024;2023-04-25T08:24:54;8.63;;;5.95;;
31402;SDS011;18039;52.188;21.024;2023-04-25T08:27:21;9.15;;;6.63;;
31402;SDS011;18039;52.188;21.024;2023-04-25T08:29:50;6.75;;;5.40;;
31402;SDS011;18039;52.188;21.024;2023-04-25T08:32:18;7.65;;;5.85;;
31402;SDS011;18039;52.188;21.024;2023-04-25T08:35:00;8.73;;;5.95;;
31402;SDS011;18039;52.188;21.024;2023-04-25T08:37:28;7.43;;;5.75;;
31402;SDS011;18039;52.188;21.024;2023-04-25T08:40:00;7.82;;;6.13;;
31402;SDS011;18039;52.188;21.024;2023-04-25T08:42:53;8.93;;;5.90;;
31402;SDS011;18039;52.188;21.024;2023-04-25T08:45:21;8.65;;;6.50;;
31402;SDS011;18039;52.188;21.024;2023-04-25T08:47:50;8.75;;;6.10;;
31402;SDS011;18039;52.188;21.024;2023-04-25T08:50:20;11.13;;;7.30;;
31402;SDS011;18039;52.188;21.024;2023-04-25T08:52:50;7.80;;;6.20;;
31402;SDS011;18039;52.188;21.024;2023-04-25T08:55:21;10.68;;;7.35;;
31402;SDS011;18039;52.188;21.024;2023-04-25T08:57:53;9.27;;;6.70;;
31402;SDS011;18039;52.188;21.024;2023-04-25T09:00:22;8.88;;;7.30;;
31402;SDS011;18039;52.188;21.024;2023-04-25T09:02:49;16.45;;;7.78;;
31402;SDS011;18039;52.188;21.024;2023-04-25T09:05:17;8.30;;;6.63;;
31402;SDS011;18039;52.188;21.024;2023-04-25T09:07:51;13.05;;;7.68;;
31402;SDS011;18039;52.188;21.024;2023-04-25T09:10:18;12.50;;;7.13;;
31402;SDS011;18039;52.188;21.024;2023-04-25T09:13:01;13.65;;;7.50;;
31402;SDS011;18039;52.188;21.024;2023-04-25T09:16:18;8.30;;;6.95;;
31402;SDS011;18039;52.188;21.024;2023-04-25T09:19:24;9.45;;;7.07;;
31402;SDS011;18039;52.188;21.024;2023-04-25T09:22:16;9.57;;;6.78;;
31402;SDS011;18039;52.188;21.024;2023-04-25T09:24:45;12.10;;;8.05;;
31402;SDS011;18039;52.188;21.024;2023-04-25T09:27:17;11.88;;;9.07;;
31402;SDS011;18039;52.188;21.024;2023-04-25T09:29:46;15.60;;;10.20;;
31402;SDS011;18039;52.188;21.024;2023-04-25T09:34:54;15.02;;;9.70;;
31402;SDS011;18039;52.188;21.024;2023-04-25T09:37:32;12.00;;;8.45;;
31402;SDS011;18039;52.188;21.024;2023-04-25T09:40:09;10.25;;;7.93;;
31402;SDS011;18039;52.188;21.024;2023-04-25T09:43:10;12.43;;;9.07;;
31402;SDS011;18039;52.188;21.024;2023-04-25T09:45:45;14.77;;;9.85;;
31402;SDS011;18039;52.188;21.024;2023-04-25T09:48:19;15.13;;;11.02;;
31402;SDS011;18039;52.188;21.024;2023-04-25T09:51:09;15.75;;;11.13;;
31402;SDS011;18039;52.188;21.024;2023-04-25T09:53:39;15.15;;;10.60;;
31402;SDS011;18039;52.188;21.024;2023-04-25T09:56:14;15.70;;;10.68;;
31402;SDS011;18039;52.188;21.024;2023-04-25T09:58:42;17.90;;;10.05;;
31402;SDS011;18039;52.188;21.024;2023-04-25T10:01:10;16.05;;;11.45;;
31402;SDS011;18039;52.188;21.024;2023-04-25T10:03:51;20.05;;;11.13;;
31402;SDS011;18039;52.188;21.024;2023-04-25T10:06:42;18.52;;;13.05;;
31402;SDS011;18039;52.188;21.024;2023-04-25T10:09:11;16.10;;;11.52;;
31402;SDS011;18039;52.188;21.024;2023-04-25T10:11:40;18.05;;;12.82;;
31402;SDS011;18039;52.188;21.024;2023-04-25T10:14:07;22.20;;;12.63;;
31402;SDS011;18039;52.188;21.024;2023-04-25T10:16:35;19.23;;;12.68;;
31402;SDS011;18039;52.188;21.024;2023-04-25T10:19:03;22.38;;;13.70;;
31402;SDS011;18039;52.188;21.024;2023-04-25T10:21:32;18.08;;;12.25;;
31402;SDS011;18039;52.188;21.024;2023-04-25T10:24:01;16.02;;;11.18;;
31402;SDS011;18039;52.188;21.024;2023-04-25T10:26:29;17.42;;;12.90;;
31402;SDS011;18039;52.188;21.024;2023-04-25T10:28:59;21.48;;;12.18;;
31402;SDS011;18039;52.188;21.024;2023-04-25T10:31:30;19.70;;;12.98;;
31402;SDS011;18039;52.188;21.024;2023-04-25T10:34:01;19.03;;;11.80;;
31402;SDS011;18039;52.188;21.024;2023-04-25T10:36:31;18.08;;;12.43;;
31402;SDS011;18039;52.188;21.024;2023-04-25T10:39:03;26.98;;;13.80;;
31402;SDS011;18039;52.188;21.024;2023-04-25T10:41:46;18.33;;;12.32;;
31402;SDS011;18039;52.188;21.024;2023-04-25T10:44:15;18.13;;;12.48;;
31402;SDS011;18039;52.188;21.024;2023-04-25T10:46:44;17.33;;;12.13;;
31402;SDS011;18039;52.188;21.024;2023-04-25T10:49:29;17.33;;;12.50;;
31402;SDS011;18039;52.188;21.024;2023-04-25T10:52:32;19.02;;;12.15;;
31402;SDS011;18039;52.188;21.024;2023-04-25T10:54:53;15.80;;;11.75;;
31402;SDS011;18039;52.188;21.024;2023-04-25T11:00:06;14.75;;;11.20;;
31402;SDS011;18039;52.188;21.024;2023-04-25T11:02:48;14.55;;;11.25;;
31402;SDS011;18039;52.188;21.024;2023-04-25T11:07:56;15.85;;;11.23;;
31402;SDS011;18039;52.188;21.024;2023-04-25T11:10:34;17.73;;;12.52;;
31402;SDS011;18039;52.188;21.024;2023-04-25T11:13:04;16.70;;;11.60;;
31402;SDS011;18039;52.188;21.024;2023-04-25T11:15:32;14.50;;;10.80;;
31402;SDS011;18039;52.188;21.024;2023-04-25T11:17:59;16.20;;;12.32;;
31402;SDS011;18039;52.188;21.024;2023-04-25T11:20:27;14.93;;;11.55;;
31402;SDS011;18039;52.188;21.024;2023-04-25T11:22:59;15.52;;;11.00;;
31402;SDS011;18039;52.188;21.024;2023-04-25T11:25:27;19.40;;;12.18;;
31402;SDS011;18039;52.188;21.024;2023-04-25T11:27:56;17.67;;;11.05;;
31402;SDS011;18039;52.188;21.024;2023-04-25T11:30:25;14.35;;;10.98;;
31402;SDS011;18039;52.188;21.024;2023-04-25T11:32:53;12.85;;;11.07;;
31402;SDS011;18039;52.188;21.024;2023-04-25T11:35:21;15.60;;;11.65;;
31402;SDS011;18039;52.188;21.024;2023-04-25T11:37:50;18.80;;;12.82;;
31402;SDS011;18039;52.188;21.024;2023-04-25T11:40:17;14.15;;;10.85;;
31402;SDS011;18039;52.188;21.024;2023-04-25T11:42:45;14.35;;;11.55;;
31402;SDS011;18039;52.188;21.024;2023-04-25T11:45:14;14.07;;;11.52;;
31402;SDS011;18039;52.188;21.024;2023-04-25T11:47:42;17.83;;;12.13;;
31402;SDS011;18039;52.188;21.024;2023-04-25T11:50:09;14.48;;;12.10;;
31402;SDS011;18039;52.188;21.024;2023-04-25T11:55:06;16.08;;;11.70;;
31402;SDS011;18039;52.188;21.024;2023-04-25T11:57:38;17.67;;;13.05;;
31402;SDS011;18039;52.188;21.024;2023-04-25T12:00:13;15.85;;;11.85;;
31402;SDS011;18039;52.188;21.024;2023-04-25T12:02:54;15.55;;;11.32;;
31402;SDS011;18039;52.188;21.024;2023-04-25T12:05:26;17.33;;;11.23;;
31402;SDS011;18039;52.188;21.024;2023-04-25T12:08:13;14.52;;;11.40;;
31402;SDS011;18039;52.188;21.024;2023-04-25T12:10:42;14.02;;;10.82;;
31402;SDS011;18039;52.188;21.024;2023-04-25T12:13:19;13.57;;;10.40;;
31402;SDS011;18039;52.188;21.024;2023-04-25T12:15:48;12.38;;;10.38;;
31402;SDS011;18039;52.188;21.024;2023-04-25T12:18:18;14.80;;;10.20;;
31402;SDS011;18039;52.188;21.024;2023-04-25T12:20:48;11.45;;;9.63;;
31402;SDS011;18039;52.188;21.024;2023-04-25T12:23:15;17.95;;;9.75;;
31402;SDS011;18039;52.188;21.024;2023-04-25T12:25:43;10.32;;;8.27;;
31402;SDS011;18039;52.188;21.024;2023-04-25T12:30:53;10.27;;;8.10;;
31402;SDS011;18039;52.188;21.024;2023-04-25T12:33:25;9.80;;;7.40;;
31402;SDS011;18039;52.188;21.024;2023-04-25T12:35:53;9.77;;;8.07;;
31402;SDS011;18039;52.188;21.024;2023-04-25T12:38:26;10.18;;;7.20;;
31402;SDS011;18039;52.188;21.024;2023-04-25T12:40:54;8.32;;;6.90;;
31402;SDS011;18039;52.188;21.024;2023-04-25T12:43:21;9.15;;;6.88;;
31402;SDS011;18039;52.188;21.024;2023-04-25T12:45:53;10.15;;;6.63;;
31402;SDS011;18039;52.188;21.024;2023-04-25T12:48:22;8.68;;;7.13;;
31402;SDS011;18039;52.188;21.024;2023-04-25T12:50:50;8.82;;;5.88;;
31402;SDS011;18039;52.188;21.024;2023-04-25T12:53:19;9.55;;;6.50;;
31402;SDS011;18039;52.188;21.024;2023-04-25T12:55:47;7.85;;;6.13;;
31402;SDS011;18039;52.188;21.024;2023-04-25T12:58:16;7.68;;;5.68;;
31402;SDS011;18039;52.188;21.024;2023-04-25T13:00:44;8.45;;;5.78;;
31402;SDS011;18039;52.188;21.024;2023-04-25T13:03:13;7.93;;;5.55;;
31402;SDS011;18039;52.188;21.024;2023-04-25T13:05:40;8.45;;;6.22;;
31402;SDS011;18039;52.188;21.024;2023-04-25T13:08:09;7.03;;;5.75;;
31402;SDS011;18039;52.188;21.024;2023-04-25T13:10:36;9.93;;;6.03;;
31402;SDS011;18039;52.188;21.024;2023-04-25T13:13:06;8.00;;;6.15;;
31402;SDS011;18039;52.188;21.024;2023-04-25T13:15:33;9.85;;;5.60;;
31402;SDS011;18039;52.188;21.024;2023-04-25T13:18:00;8.32;;;6.00;;
31402;SDS011;18039;52.188;21.024;2023-04-25T13:20:29;9.20;;;6.13;;
31402;SDS011;18039;52.188;21.024;2023-04-25T13:22:56;7.55;;;6.10;;
31402;SDS011;18039;52.188;21.024;2023-04-25T13:25:26;6.80;;;6.00;;
31402;SDS011;18039;52.188;21.024;2023-04-25T13:27:53;6.60;;;5.30;;
31402;SDS011;18039;52.188;21.024;2023-04-25T13:30:20;7.60;;;5.18;;
31402;SDS011;18039;52.188;21.024;2023-04-25T13:32:47;6.35;;;5.05;;
31402;SDS011;18039;52.188;21.024;2023-04-25T13:35:16;6.07;;;4.38;;
31402;SDS011;18039;52.188;21.024;2023-04-25T13:37:43;6.60;;;5.10;;
31402;SDS011;18039;52.188;21.024;2023-04-25T13:40:10;7.90;;;4.90;;
31402;SDS011;18039;52.188;21.024;2023-04-25T13:42:38;7.97;;;4.72;;
31402;SDS011;18039;52.188;21.024;2023-04-25T13:45:06;5.80;;;5.13;;
31402;SDS011;18039;52.188;21.024;2023-04-25T13:47:34;8.27;;;5.40;;
31402;SDS011;18039;52.188;21.024;2023-04-25T13:50:02;7.72;;;6.32;;
31402;SDS011;18039;52.188;21.024;2023-04-25T13:52:30;6.55;;;5.25;;
31402;SDS011;18039;52.188;21.024;2023-04-25T13:54:58;6.25;;;5.38;;
31402;SDS011;18039;52.188;21.024;2023-04-25T13:57:26;7.78;;;6.00;;
31402;SDS011;18039;52.188;21.024;2023-04-25T13:59:53;9.55;;;6.22;;
31402;SDS011;18039;52.188;21.024;2023-04-25T14:02:21;8.93;;;6.30;;
31402;SDS011;18039;52.188;21.024;2023-04-25T14:04:48;8.57;;;6.78;;
31402;SDS011;18039;52.188;21.024;2023-04-25T14:07:15;12.85;;;6.65;;
31402;SDS011;18039;52.188;21.024;2023-04-25T14:09:43;9.65;;;6.72;;
31402;SDS011;18039;52.188;21.024;2023-04-25T14:12:11;6.97;;;5.85;;
31402;SDS011;18039;52.188;21.024;2023-04-25T14:14:38;9.50;;;6.43;;
31402;SDS011;18039;52.188;21.024;2023-04-25T14:17:05;8.38;;;6.35;;
31402;SDS011;18039;52.188;21.024;2023-04-25T14:19:33;9.02;;;6.90;;
31402;SDS011;18039;52.188;21.024;2023-04-25T14:22:01;10.05;;;6.97;;
31402;SDS011;18039;52.188;21.024;2023-04-25T14:24:28;10.18;;;7.10;;
31402;SDS011;18039;52.188;21.024;2023-04-25T14:26:55;8.57;;;6.10;;
31402;SDS011;18039;52.188;21.024;2023-04-25T14:29:22;8.45;;;6.50;;
31402;SDS011;18039;52.188;21.024;2023-04-25T14:31:50;8.00;;;6.80;;
31402;SDS011;18039;52.188;21.024;2023-04-25T14:34:17;10.43;;;6.40;;
31402;SDS011;18039;52.188;21.024;2023-04-25T14:36:45;9.05;;;6.88;;
31402;SDS011;18039;52.188;21.024;2023-04-25T14:39:12;7.82;;;6.25;;
31402;SDS011;18039;52.188;21.024;2023-04-25T14:41:41;8.73;;;6.53;;
31402;SDS011;18039;52.188;21.024;2023-04-25T14:44:08;10.90;;;6.53;;
31402;SDS011;18039;52.188;21.024;2023-04-25T14:46:36;9.85;;;7.10;;
31402;SDS011;18039;52.188;21.024;2023-04-25T14:49:03;10.93;;;6.78;;
31402;SDS011;18039;52.188;21.024;2023-04-25T14:51:31;11.73;;;6.63;;
31402;SDS011;18039;52.188;21.024;2023-04-25T14:54:00;9.75;;;6.90;;
31402;SDS011;18039;52.188;21.024;2023-04-25T14:56:27;10.98;;;7.55;;
31402;SDS011;18039;52.188;21.024;2023-04-25T14:58:55;9.75;;;7.20;;